Sunday, March 1, 2015, 10:28 PM EST

KOXB, Ocean City Municipal Airport

Location: Berlin, MD, United States Lat: 38.317
Local Time: 10:28 PM EST ( 3:28 GMT) Lon: -75.117
Time Zone: US/Eastern Elev: 13 ft

Show me the last for .
Show Decoded

2015-03-01 21:53 METAR KOXB 020253Z AUTO 00000KT 5SM BR OVC003 00/00 A3023 RMK AO2 UPE0159 PRESFR
                 SLP236 P0000 60012 T00000000 58026 TSNO =
2015-03-01 21:00 METAR KOXB 020200Z AUTO 18005KT 3SM BR OVC002 00/M01 A3025 RMK AO2 UPE0159 P0000
                 T00001006 TSNO =
2015-03-01 20:53 METAR KOXB 020153Z AUTO 19005KT 2 1/2SM UP BR BKN002 OVC020 00/M01 A3026 RMK AO2
                 UPE19B42 SLP245 P0002 T00001006 TSNO =
2015-03-01 20:44 METAR KOXB 020144Z AUTO 19003KT 3SM UP BR BKN002 BKN022 OVC039 00/00 A3026 RMK
                 AO2 UPE19B42 P0002 T00000000 TSNO =
2015-03-01 20:32 METAR KOXB 020132Z AUTO 17003KT 3SM BR FEW002 BKN022 OVC039 00/M01 A3027 RMK AO2
                 UPE19 PRESFR P0001 T00001006 TSNO =
2015-03-01 20:11 METAR KOXB 020111Z AUTO 00000KT 2SM UP BR OVC023 00/00 A3030 RMK AO2 P0001
                 T00000000 TSNO =
2015-03-01 19:53 METAR KOXB 020053Z AUTO 00000KT 1 3/4SM UP BR FEW011 BKN023 OVC029 00/00 A3031
                 RMK AO2 SLP262 P0010 T00000000 TSNO =
2015-03-01 19:45 METAR KOXB 020045Z AUTO 34003KT 1 3/4SM UP BR BKN011 BKN018 OVC025 00/M01 A3032
                 RMK AO2 P0008 T00001006 TSNO =
2015-03-01 19:21 METAR KOXB 020021Z AUTO 35003KT 1 3/4SM UP BR FEW008 BKN015 OVC026 00/M01 A3033
                 RMK AO2 P0005 T00001011 TSNO =
2015-03-01 18:53 METAR KOXB 012353Z AUTO 36003KT 2SM UP BR FEW017 BKN028 OVC050 00/M01 A3035 RMK
                 AO2 SLP275 P0009 60028 I6010 T00001006 10000 21011 56016 TSNO =
2015-03-01 18:34 METAR KOXB 012334Z AUTO 34003KT 2 1/2SM UP BR SCT004 SCT015 OVC030 00/M01 A3035
                 RMK AO2 P0005 T00001006 TSNO =
2015-03-01 18:20 METAR KOXB 012320Z AUTO 33004KT 3SM UP BR BKN004 OVC015 00/M01 A3036 RMK AO2
                 P0003 T00001006 TSNO =
2015-03-01 18:11 METAR KOXB 012311Z AUTO 31004KT 2 1/2SM UP BR BKN005 OVC011 00/M01 A3037 RMK AO2
                 P0002 T00001006 TSNO =
2015-03-01 17:53 METAR KOXB 012253Z AUTO 34003KT 3SM UP BR SCT004 BKN011 OVC016 00/M01 A3037 RMK
                 AO2 SLP282 P0003 T00001006 TSNO =
2015-03-01 17:50 METAR KOXB 012250Z AUTO 35003KT 3SM UP BR BKN004 OVC014 00/M01 A3036 RMK AO2
                 P0003 TSNO =
2015-03-01 17:37 METAR KOXB 012237Z AUTO 34004KT 2SM UP BR SCT003 OVC012 00/M01 A3038 RMK AO2
                 P0002 T00001006 TSNO =
2015-03-01 17:18 METAR KOXB 012218Z AUTO 34004KT 1 1/4SM UP BR BKN003 OVC012 00/M01 A3038 RMK AO2
                 P0002 T00001006 TSNO =
2015-03-01 17:02 METAR KOXB 012202Z AUTO 00000KT 1 1/2SM UP BR BKN004 OVC012 00/M01 A3039 RMK AO2
                 P0000 T00001006 TSNO =
2015-03-01 16:53 METAR KOXB 012153Z AUTO 35004KT 1 1/2SM UP BR SCT004 OVC012 00/M01 A3039 RMK AO2
                 SLP291 P0006 T00001006 TSNO =
2015-03-01 16:41 METAR KOXB 012141Z AUTO 01004KT 1 1/2SM UP BR SCT004 OVC012 00/M01 A3039 RMK AO2
                 P0005 T00001006 TSNO =
2015-03-01 16:28 METAR KOXB 012128Z AUTO 02003KT 2 1/2SM UP BR SCT004 OVC012 00/M01 A3040 RMK AO2
                 P0004 T00001006 TSNO =
2015-03-01 16:05 METAR KOXB 012105Z AUTO 36004KT 2 1/2SM UP BR BKN004 OVC012 M01/M01 A3042 RMK
                 AO2 P0002 T10061011 TSNO =
2015-03-01 15:53 METAR KOXB 012053Z AUTO 01006KT 3SM UP BR BKN004 OVC014 M01/M01 A3042 RMK AO2
                 UPB20FZRAE20 SLP301 P0004 60010 I1001 I3010 T10061011 55020 TSNO =
2015-03-01 15:40 METAR KOXB 012040Z AUTO 02006KT 2 1/2SM UP BR BKN003 OVC013 M01/M01 A3042 RMK
                 AO2 VIS 1 3/4V4 UPB20FZRAE20 P0004 I1001 T10061011 TSNO =
2015-03-01 15:23 METAR KOXB 012023Z AUTO 36007KT 1 1/4SM UP BR OVC003 M01/M01 A3044 RMK AO2
                 UPB20FZRAE20 P0003 I1001 T10061011 TSNO =
2015-03-01 14:53 METAR KOXB 011953Z AUTO 35006KT 1 1/2SM -FZRA BR BKN004 OVC011 M01/M01 A3044 RMK
                 AO2 UPE1855FZRAB1855 SLP308 P0003 I1005 T10061011 TSNO =
2015-03-01 14:50 METAR KOXB 011950Z AUTO 36006KT 1 3/4SM -FZRA BR BKN004 OVC011 M01/M02 A3045 RMK
                 AO2 UPE1855FZRAB1855 P0003 I1005 TSNO =
2015-03-01 14:29 METAR KOXB 011929Z AUTO 36007KT 2SM -FZRA BR OVC005 M01/M02 A3045 RMK AO2
                 UPE1855FZRAB1855 P0002 I1004 T10061017 TSNO =
2015-03-01 14:22 METAR KOXB 011922Z AUTO 35006KT 3SM -FZRA BR OVC005 M01/M02 A3046 RMK AO2
                 UPE1855FZRAB1855 P0002 I1003 T10061017 TSNO =
2015-03-01 14:07 METAR KOXB 011907Z AUTO 34007KT 2SM -FZRA BR BKN005 OVC010 M01/M02 A3047 RMK AO2
                 UPE1855FZRAB1855 P0001 I1002 T10111017 TSNO =
2015-03-01 14:01 METAR KOXB 011901Z AUTO 34008KT 1 3/4SM -FZRA BR BKN004 OVC013 M01/M02 A3047 RMK
                 AO2 UPE1855FZRAB1855 P0001 I1001 T10111017 TSNO =
2015-03-01 13:53 METAR KOXB 011853Z AUTO 34007KT 1 3/4SM UP BR BKN004 BKN011 OVC016 M01/M02 A3048
                 RMK AO2 UPB50FZRAE50 SLP321 P0003 I1004 T10111017 TSNO =
2015-03-01 13:48 METAR KOXB 011848Z AUTO 35006KT 1 3/4SM -FZRA BR BKN004 OVC011 M01/M02 A3048 RMK
                 AO2 P0003 I1004 TSNO =
2015-03-01 13:43 METAR KOXB 011843Z AUTO 35006KT 1 1/2SM -FZRA BR SCT005 OVC011 M01/M02 A3049 RMK
                 AO2 P0003 I1004 T10111017 TSNO =
2015-03-01 13:13 METAR KOXB 011813Z AUTO 36006KT 2 1/2SM -FZRA BR FEW007 OVC014 M01/M02 A3051 RMK
                 AO2 P0001 I1001 T10111022 TSNO =
2015-03-01 12:53 METAR KOXB 011753Z AUTO 02005KT 3SM -FZRA BR OVC017 M01/M02 A3051 RMK AO2 SLP331
                 P0002 60005 I1002 I6005 T10111022 11011 21061 58050 TSNO =
2015-03-01 11:53 METAR KOXB 011653Z AUTO 04006KT 3SM -FZRA BR OVC020 M01/M03 A3057 RMK AO2
                 UPE07FZRAB07 SLP352 P0002 I1003 T10111028 TSNO =
2015-03-01 11:13 METAR KOXB 011613Z AUTO 03005KT 5SM -FZRA BR OVC022 M02/M03 A3060 RMK AO2
                 UPE07FZRAB07 P0000 I1001 T10171033 TSNO =
2015-03-01 11:00 METAR KOXB 011600Z AUTO 02006KT 6SM UP BR BKN022 OVC032 M02/M04 A3061 RMK AO2
                 P0000 T10171039 TSNO =
2015-03-01 10:53 METAR KOXB 011553Z AUTO 02005KT 8SM UP SCT024 BKN032 OVC038 M01/M04 A3061 RMK
                 AO2 UPB04SNE04 SLP364 P0001 I1000 T10111039 TSNO =
2015-03-01 09:53 METAR KOXB 011453Z AUTO 36004KT 3SM -SN BKN036 OVC049 M02/M04 A3066 RMK AO2
                 SNB11 SLP381 P0000 60000 T10171044 58000 TSNO =
2015-03-01 09:51 METAR KOXB 011451Z AUTO 35003KT 2 1/2SM -SN BKN036 OVC049 M02/M05 A3066 RMK AO2
                 VIS 1 3/4V4 SNB11 P0000 TSNO =
2015-03-01 09:41 METAR KOXB 011441Z AUTO 35003KT 1 3/4SM -SN SCT029 BKN039 OVC049 M02/M06 A3067
                 RMK AO2 SNB11 P0000 T10221056 TSNO =
2015-03-01 09:39 METAR KOXB 011439Z AUTO 34003KT 2SM -SN BKN031 BKN039 OVC049 M02/M06 A3067 RMK
                 AO2 SNB11 P0000 T10221056 TSNO =
2015-03-01 09:32 METAR KOXB 011432Z AUTO 35003KT 1 3/4SM -SN BKN031 OVC039 M02/M06 A3067 RMK AO2
                 SNB11 P0000 T10171056 TSNO =
2015-03-01 09:24 METAR KOXB 011424Z AUTO 34004KT 2 1/2SM -SN BKN029 OVC040 M02/M06 A3068 RMK AO2
                 SNB11 P0000 T10171061 TSNO =
2015-03-01 08:53 METAR KOXB 011353Z AUTO 33004KT 10SM FEW029 OVC050 M02/M06 A3068 RMK AO2 SLP389
                 T10171061 TSNO =
2015-03-01 07:53 METAR KOXB 011253Z AUTO 05003KT 10SM BKN047 OVC065 M02/M07 A3066 RMK AO2 SLP381
                 T10171067 TSNO =
2015-03-01 06:53 METAR KOXB 011153Z AUTO 07003KT 8SM BKN095 M06/M08 A3066 RMK AO2 SLP380 I6000
                 T10611078 11061 21111 58013 TSNO =
2015-03-01 05:53 METAR KOXB 011053Z AUTO 00000KT 10SM OVC085 M07/M09 A3068 RMK AO2 SLP388
                 T10721094 TSNO =
2015-03-01 04:53 METAR KOXB 010953Z AUTO 00000KT 10SM BKN080 M09/M11 A3069 RMK AO2 SLP391
                 T10891111 TSNO =
2015-03-01 03:53 METAR KOXB 010853Z AUTO 00000KT 10SM FEW080 M11/M12 A3069 RMK AO2 SLP393 I3000
                 T11061122 58015 TSNO =
2015-03-01 02:53 METAR KOXB 010753Z AUTO 36004KT 10SM CLR M10/M12 A3070 RMK AO2 SLP395 T11001122
                 TSNO =
2015-03-01 01:53 METAR KOXB 010653Z AUTO 00000KT 10SM CLR M11/M13 A3074 RMK AO2 SLP407 I1000
                 T11111128 TSNO =
2015-03-01 00:53 METAR KOXB 010553Z AUTO 00000KT 10SM CLR M10/M12 A3074 RMK AO2 SLP408 I1000
                 I6000 T11001122 11056 21106 58019 TSNO =
2015-02-28 23:53 METAR KOXB 010453Z AUTO 00000KT 10SM CLR M10/M12 A3076 RMK AO2 SLP416 I1000
                 T11001122 410221100 TSNO =
2015-02-28 22:53 METAR KOXB 010353Z AUTO 00000KT 10SM CLR M09/M12 A3079 RMK AO2 SLP424 I1000
                 T10891117 TSNO =

Support USWX by starting your Amazon purchase here.